Time;durP1;ratioP1;P1;durP2;ratioP2;P2;SDS_P1;SDS_P2;PMS_P1;PMS_P2;Temp;Humidity;BMP_temperature;BMP_pressure;BME280_temperature;BME280_humidity;BME280_pressure;Samples;Min_cycle;Max_cycle;Signal;HPM_P1;HPM_P2
2022/01/17 00:02:23;;;;;;;63.77;43.90;;;;;;;;;;4996136;28;20077;-68
2022/01/17 00:04:49;;;;;;;62.07;45.63;;;;;;;;;;4995947;28;20447;-68
2022/01/17 00:07:16;;;;;;;60.23;44.50;;;;;;;;;;4995772;28;20054;-68
2022/01/17 00:09:42;;;;;;;63.40;45.93;;;;;;;;;;4994454;28;20085;-68
2022/01/17 00:12:10;;;;;;;62.30;44.33;;;;;;;;;;4995494;28;20106;-68
2022/01/17 00:14:40;;;;;;;57.43;41.33;;;;;;;;;;4995883;28;20117;-68
2022/01/17 00:17:27;;;;;;;63.43;43.27;;;;;;;;;;4995658;28;20428;-68
2022/01/17 00:19:55;;;;;;;54.47;40.40;;;;;;;;;;4995763;28;20034;-68
2022/01/17 00:22:21;;;;;;;57.37;38.27;;;;;;;;;;4995616;28;20022;-68
2022/01/17 00:24:48;;;;;;;55.20;41.67;;;;;;;;;;4995713;28;20034;-68
2022/01/17 00:27:14;;;;;;;53.93;39.60;;;;;;;;;;4995423;28;20022;-68
2022/01/17 00:29:41;;;;;;;54.63;38.70;;;;;;;;;;4993900;28;20077;-68
2022/01/17 00:32:07;;;;;;;50.93;35.53;;;;;;;;;;4995543;28;20033;-68
2022/01/17 00:34:34;;;;;;;46.77;33.27;;;;;;;;;;4995468;28;20043;-68
2022/01/17 00:37:00;;;;;;;46.43;33.77;;;;;;;;;;4995495;28;20040;-68
2022/01/17 00:39:26;;;;;;;43.90;31.43;;;;;;;;;;4995516;28;20023;-68
2022/01/17 00:41:52;;;;;;;40.60;29.87;;;;;;;;;;4995171;28;20081;-68
2022/01/17 00:44:23;;;;;;;40.53;29.67;;;;;;;;;;4995173;28;20030;-68
2022/01/17 00:46:50;;;;;;;41.83;30.10;;;;;;;;;;4995315;28;20025;-68
2022/01/17 00:49:16;;;;;;;44.23;29.50;;;;;;;;;;4995147;28;20030;-68
2022/01/17 00:51:42;;;;;;;43.67;30.30;;;;;;;;;;4994854;28;20037;-68
2022/01/17 00:54:09;;;;;;;38.63;29.53;;;;;;;;;;4994918;28;20026;-68
2022/01/17 00:56:35;;;;;;;40.50;29.87;;;;;;;;;;4995004;28;20030;-68
2022/01/17 00:59:01;;;;;;;42.83;32.43;;;;;;;;;;4994962;28;20422;-68
2022/01/17 01:01:27;;;;;;;43.83;31.77;;;;;;;;;;4994065;28;20085;-68
2022/01/17 01:03:53;;;;;;;52.13;38.70;;;;;;;;;;4994911;28;20033;-68
2022/01/17 01:06:19;;;;;;;53.93;40.50;;;;;;;;;;4994625;28;20108;-68
2022/01/17 01:08:45;;;;;;;57.40;41.27;;;;;;;;;;4994547;28;20076;-68
2022/01/17 01:11:11;;;;;;;60.00;42.27;;;;;;;;;;4994596;28;20034;-68
2022/01/17 01:13:38;;;;;;;68.57;42.97;;;;;;;;;;4994702;28;20117;-68
2022/01/17 01:28:56;;;;;;;56.43;43.30;;;;;;;;;;4994407;28;20077;-68
2022/01/17 01:31:36;;;;;;;62.33;43.67;;;;;;;;;;4994348;28;20038;-68
2022/01/17 01:34:05;;;;;;;67.47;44.93;;;;;;;;;;4994138;28;20055;-68
2022/01/17 01:36:33;;;;;;;58.07;42.10;;;;;;;;;;4992858;28;20038;-68
2022/01/17 01:38:59;;;;;;;59.43;41.27;;;;;;;;;;4994071;28;20471;-68
2022/01/17 01:41:25;;;;;;;58.73;42.53;;;;;;;;;;4994139;28;20395;-68
2022/01/17 01:43:51;;;;;;;52.07;39.17;;;;;;;;;;4994152;28;20068;-67
2022/01/17 01:46:19;;;;;;;60.20;41.87;;;;;;;;;;4994156;28;20026;-68
2022/01/17 01:48:45;;;;;;;54.47;40.63;;;;;;;;;;4994049;28;20026;-68
2022/01/17 01:51:11;;;;;;;53.77;38.77;;;;;;;;;;4994220;28;20038;-68
2022/01/17 01:53:38;;;;;;;51.23;38.70;;;;;;;;;;4993924;28;20030;-68
2022/01/17 01:56:04;;;;;;;54.87;39.80;;;;;;;;;;4993663;28;20038;-68
2022/01/17 01:58:30;;;;;;;53.27;38.43;;;;;;;;;;4992332;28;20073;-69
2022/01/17 02:00:56;;;;;;;53.27;39.03;;;;;;;;;;4991264;28;20034;-69
2022/01/17 02:03:22;;;;;;;52.77;38.57;;;;;;;;;;4990799;28;20065;-68
2022/01/17 02:05:48;;;;;;;52.00;36.30;;;;;;;;;;4993128;28;20022;-68
2022/01/17 02:08:15;;;;;;;50.37;36.80;;;;;;;;;;4993883;28;20475;-69
2022/01/17 02:10:42;;;;;;;48.10;36.27;;;;;;;;;;4993653;28;20468;-69
2022/01/17 02:13:08;;;;;;;49.03;34.23;;;;;;;;;;4993575;28;20035;-68
2022/01/17 02:15:36;;;;;;;44.97;32.87;;;;;;;;;;4993535;28;20037;-68
2022/01/17 02:18:03;;;;;;;45.73;29.63;;;;;;;;;;4993685;28;20072;-68
2022/01/17 02:23:25;;;;;;;25.83;18.73;;;;;;;;;;4970850;28;20113;-68
2022/01/17 02:25:55;;;;;;;27.50;18.93;;;;;;;;;;4993522;28;20023;-68
2022/01/17 02:28:21;;;;;;;24.20;18.20;;;;;;;;;;4992841;28;20269;-68
2022/01/17 02:30:47;;;;;;;28.87;19.03;;;;;;;;;;4993311;28;20034;-68
2022/01/17 02:33:13;;;;;;;22.33;17.20;;;;;;;;;;4993654;28;20022;-68
2022/01/17 02:35:39;;;;;;;26.37;17.60;;;;;;;;;;4993081;28;20109;-68
2022/01/17 02:38:05;;;;;;;23.03;16.63;;;;;;;;;;4993395;28;20426;-69
2022/01/17 02:40:31;;;;;;;23.57;16.60;;;;;;;;;;4993519;28;20031;-68
2022/01/17 02:43:03;;;;;;;22.50;17.23;;;;;;;;;;4993107;28;20034;-69
2022/01/17 02:48:23;;;;;;;26.15;18.45;;;;;;;;;;4970349;28;20035;-68
2022/01/17 02:50:49;;;;;;;25.57;18.10;;;;;;;;;;4993063;28;20462;-68
2022/01/17 02:53:15;;;;;;;25.87;18.13;;;;;;;;;;4993464;28;20160;-68
2022/01/17 02:55:46;;;;;;;26.13;18.63;;;;;;;;;;4993123;28;20491;-68
2022/01/17 02:58:12;;;;;;;27.87;20.77;;;;;;;;;;4993327;28;20037;-68
2022/01/17 03:00:38;;;;;;;30.13;21.07;;;;;;;;;;4993328;28;20387;-68
2022/01/17 03:03:05;;;;;;;28.57;20.00;;;;;;;;;;4993162;28;20114;-68
2022/01/17 03:05:31;;;;;;;28.53;21.50;;;;;;;;;;4993181;28;20082;-68
2022/01/17 03:07:57;;;;;;;27.93;21.23;;;;;;;;;;4993349;28;20022;-68
2022/01/17 03:12:49;;;;;;;26.13;18.63;;;;;;;;;;4993067;28;20026;-69
2022/01/17 03:15:15;;;;;;;24.87;16.73;;;;;;;;;;4993189;28;20447;-68
2022/01/17 03:17:41;;;;;;;21.57;13.73;;;;;;;;;;4993333;28;20526;-68
2022/01/17 03:20:07;;;;;;;19.43;12.43;;;;;;;;;;4993040;28;20330;-68
2022/01/17 03:22:34;;;;;;;22.63;15.37;;;;;;;;;;4993077;28;20027;-68
2022/01/17 03:25:00;;;;;;;25.13;16.60;;;;;;;;;;4994154;28;20439;-68
2022/01/17 03:27:26;;;;;;;29.00;19.93;;;;;;;;;;4996641;28;20034;-67
2022/01/17 03:29:52;;;;;;;31.63;22.03;;;;;;;;;;4996520;28;20035;-68
2022/01/17 03:32:18;;;;;;;34.80;25.63;;;;;;;;;;4996362;28;20494;-68
2022/01/17 03:34:44;;;;;;;41.03;30.73;;;;;;;;;;4996247;28;20058;-68
2022/01/17 03:37:10;;;;;;;42.23;30.20;;;;;;;;;;4996406;28;20027;-68
2022/01/17 03:39:36;;;;;;;43.73;31.07;;;;;;;;;;4996382;28;20026;-68
2022/01/17 03:42:02;;;;;;;46.20;31.97;;;;;;;;;;4996421;28;20026;-68
2022/01/17 03:44:28;;;;;;;51.00;33.93;;;;;;;;;;4996176;28;20034;-68
2022/01/17 03:46:54;;;;;;;43.80;32.33;;;;;;;;;;4996282;28;20502;-68
2022/01/17 03:49:20;;;;;;;46.40;33.00;;;;;;;;;;4996167;28;20027;-68
2022/01/17 03:51:46;;;;;;;45.23;35.40;;;;;;;;;;4995982;28;20384;-68
2022/01/17 03:54:12;;;;;;;50.23;36.33;;;;;;;;;;4995836;28;20096;-68
2022/01/17 03:56:38;;;;;;;53.63;36.80;;;;;;;;;;4996239;28;20030;-68
2022/01/17 03:59:04;;;;;;;52.37;37.23;;;;;;;;;;4996034;28;20022;-68
2022/01/17 04:01:30;;;;;;;53.50;37.37;;;;;;;;;;4996135;28;20467;-68
2022/01/17 04:03:56;;;;;;;51.37;35.80;;;;;;;;;;4995732;28;20026;-68
2022/01/17 04:06:23;;;;;;;52.40;36.83;;;;;;;;;;4995696;28;20037;-68
2022/01/17 04:08:49;;;;;;;51.03;36.93;;;;;;;;;;4995810;28;20027;-68
2022/01/17 04:11:15;;;;;;;49.60;36.00;;;;;;;;;;4995799;28;20471;-68
2022/01/17 04:13:41;;;;;;;48.30;35.20;;;;;;;;;;4995665;28;20471;-68
2022/01/17 04:16:07;;;;;;;46.00;33.57;;;;;;;;;;4995612;28;20549;-68
2022/01/17 04:18:33;;;;;;;46.80;33.77;;;;;;;;;;4995860;28;20026;-68
2022/01/17 04:21:02;;;;;;;47.63;30.40;;;;;;;;;;4995547;28;20030;-68
2022/01/17 04:23:28;;;;;;;45.00;30.63;;;;;;;;;;4995532;28;20105;-68
2022/01/17 04:25:56;;;;;;;45.10;32.57;;;;;;;;;;4995449;28;20109;-68
2022/01/17 04:28:22;;;;;;;42.30;31.30;;;;;;;;;;4995210;28;20037;-68
2022/01/17 04:30:48;;;;;;;45.80;31.03;;;;;;;;;;4995425;28;20061;-68
2022/01/17 04:33:14;;;;;;;41.33;29.23;;;;;;;;;;4995540;28;20072;-68
2022/01/17 04:35:42;;;;;;;39.80;29.50;;;;;;;;;;4994290;28;20052;-68
2022/01/17 04:38:09;;;;;;;37.23;27.17;;;;;;;;;;4994862;28;20066;-69
2022/01/17 04:40:37;;;;;;;40.60;29.43;;;;;;;;;;4995292;28;20038;-69
2022/01/17 04:43:18;;;;;;;42.87;31.10;;;;;;;;;;4995337;28;20422;-68
2022/01/17 04:45:44;;;;;;;45.07;31.40;;;;;;;;;;4995205;28;20138;-68
2022/01/17 04:48:10;;;;;;;41.10;29.70;;;;;;;;;;4994986;28;20062;-68
2022/01/17 04:50:36;;;;;;;42.33;30.33;;;;;;;;;;4994960;28;20472;-68
2022/01/17 04:53:03;;;;;;;44.63;30.90;;;;;;;;;;4994806;28;20475;-68
2022/01/17 04:55:29;;;;;;;40.83;29.50;;;;;;;;;;4994886;28;20038;-68
2022/01/17 04:57:58;;;;;;;38.77;27.43;;;;;;;;;;4994874;28;20022;-68
2022/01/17 05:00:25;;;;;;;37.73;28.20;;;;;;;;;;4994819;28;20026;-68
2022/01/17 05:02:51;;;;;;;38.40;28.17;;;;;;;;;;4995003;28;20022;-68
2022/01/17 05:05:18;;;;;;;44.97;28.70;;;;;;;;;;4994663;28;20101;-68
2022/01/17 05:07:44;;;;;;;35.37;26.63;;;;;;;;;;4994811;28;20027;-68
2022/01/17 05:10:11;;;;;;;38.40;27.00;;;;;;;;;;4994897;28;20093;-68
2022/01/17 05:12:37;;;;;;;36.20;26.50;;;;;;;;;;4994595;28;20518;-68
2022/01/17 05:15:05;;;;;;;37.60;26.47;;;;;;;;;;4994528;28;20039;-68
2022/01/17 05:20:00;;;;;;;37.73;27.97;;;;;;;;;;4994680;28;20431;-68
2022/01/17 05:22:31;;;;;;;38.90;27.70;;;;;;;;;;4994420;28;20430;-68
2022/01/17 05:24:57;;;;;;;36.97;26.40;;;;;;;;;;4993788;28;20141;-68
2022/01/17 05:27:23;;;;;;;39.33;26.73;;;;;;;;;;4993984;28;20034;-69
2022/01/17 05:29:49;;;;;;;39.00;27.30;;;;;;;;;;4993736;28;20105;-68
2022/01/17 05:32:15;;;;;;;38.80;27.20;;;;;;;;;;4994026;28;20419;-68
2022/01/17 05:34:43;;;;;;;39.00;27.67;;;;;;;;;;4993803;28;20121;-68
2022/01/17 05:37:10;;;;;;;37.23;28.33;;;;;;;;;;4992994;28;20026;-68
2022/01/17 05:39:37;;;;;;;37.57;27.20;;;;;;;;;;4993156;28;20034;-68
2022/01/17 05:42:04;;;;;;;39.83;27.17;;;;;;;;;;4993844;28;20023;-68
2022/01/17 05:44:30;;;;;;;36.97;27.23;;;;;;;;;;4992962;28;20022;-68
2022/01/17 05:46:56;;;;;;;36.97;26.60;;;;;;;;;;4993591;28;20387;-68
2022/01/17 05:49:22;;;;;;;35.33;26.20;;;;;;;;;;4991786;28;20033;-67
2022/01/17 05:51:48;;;;;;;35.83;24.27;;;;;;;;;;4993650;28;20038;-68
2022/01/17 05:54:15;;;;;;;32.33;25.20;;;;;;;;;;4993410;28;20089;-71
2022/01/17 05:56:42;;;;;;;39.73;28.03;;;;;;;;;;4993626;28;20023;-70
2022/01/17 05:59:08;;;;;;;43.50;28.27;;;;;;;;;;4993245;28;20106;-71
2022/01/17 06:01:34;;;;;;;41.40;29.17;;;;;;;;;;4991284;28;20057;-70
2022/01/17 06:04:00;;;;;;;48.07;31.20;;;;;;;;;;4990376;28;20121;-71
2022/01/17 06:06:26;;;;;;;41.50;30.20;;;;;;;;;;4993239;28;20057;-71
2022/01/17 06:08:52;;;;;;;39.57;28.00;;;;;;;;;;4993339;28;20085;-71
2022/01/17 06:11:18;;;;;;;41.13;28.10;;;;;;;;;;4991547;28;20031;-71
2022/01/17 06:13:44;;;;;;;44.90;28.70;;;;;;;;;;4992639;28;20529;-70
2022/01/17 06:16:10;;;;;;;40.83;28.40;;;;;;;;;;4991784;28;20031;-71
2022/01/17 06:18:36;;;;;;;40.50;29.80;;;;;;;;;;4990524;28;20084;-71
2022/01/17 06:21:02;;;;;;;46.80;30.17;;;;;;;;;;4992326;28;20360;-71
2022/01/17 06:23:28;;;;;;;43.67;29.67;;;;;;;;;;4992485;28;20538;-71
2022/01/17 06:25:54;;;;;;;40.23;28.70;;;;;;;;;;4992651;28;20026;-72
2022/01/17 06:28:20;;;;;;;40.73;28.20;;;;;;;;;;4991832;28;20025;-73
2022/01/17 06:30:46;;;;;;;42.13;29.17;;;;;;;;;;4992325;28;20027;-72
2022/01/17 06:33:12;;;;;;;42.40;29.27;;;;;;;;;;4992346;28;20018;-71
2022/01/17 06:35:39;;;;;;;42.83;31.13;;;;;;;;;;4992290;28;20061;-72
2022/01/17 06:38:05;;;;;;;47.17;33.87;;;;;;;;;;4992908;28;20029;-73
2022/01/17 06:40:31;;;;;;;45.57;32.13;;;;;;;;;;4993135;28;20483;-71
2022/01/17 06:42:57;;;;;;;46.03;32.07;;;;;;;;;;4993633;28;20019;-72
2022/01/17 06:45:23;;;;;;;47.20;32.27;;;;;;;;;;4992233;28;20027;-72
2022/01/17 06:47:50;;;;;;;45.87;30.73;;;;;;;;;;4993413;28;20475;-72
2022/01/17 06:50:16;;;;;;;48.93;32.10;;;;;;;;;;4993590;28;20026;-71
2022/01/17 06:52:42;;;;;;;45.23;32.03;;;;;;;;;;4993122;28;20026;-72
2022/01/17 06:55:09;;;;;;;48.73;34.37;;;;;;;;;;4993023;28;20041;-72
2022/01/17 06:57:35;;;;;;;54.73;35.23;;;;;;;;;;4993289;28;20019;-72
2022/01/17 07:00:01;;;;;;;49.77;32.87;;;;;;;;;;4994560;28;20054;-72
2022/01/17 07:02:27;;;;;;;52.53;35.70;;;;;;;;;;4997229;28;20026;-70
2022/01/17 07:04:53;;;;;;;50.90;35.67;;;;;;;;;;4997123;28;20443;-71
2022/01/17 07:07:20;;;;;;;49.57;35.27;;;;;;;;;;4997161;28;20030;-72
2022/01/17 07:09:46;;;;;;;49.90;34.77;;;;;;;;;;4996970;28;20026;-72
2022/01/17 07:12:12;;;;;;;50.00;33.77;;;;;;;;;;4996598;28;20590;-72
2022/01/17 07:14:41;;;;;;;50.57;32.67;;;;;;;;;;4985887;28;20041;-71
2022/01/17 07:17:10;;;;;;;52.07;33.63;;;;;;;;;;4986104;28;20026;-72
2022/01/17 07:19:37;;;;;;;80.93;38.70;;;;;;;;;;4984672;28;20043;-71
2022/01/17 07:22:04;;;;;;;91.27;41.27;;;;;;;;;;4985643;28;20471;-72
2022/01/17 07:24:30;;;;;;;59.67;35.27;;;;;;;;;;4986119;28;20019;-71
2022/01/17 07:26:56;;;;;;;44.43;28.90;;;;;;;;;;4984554;28;20427;-72
2022/01/17 07:29:23;;;;;;;44.73;32.47;;;;;;;;;;4985686;28;20022;-72
2022/01/17 07:31:50;;;;;;;53.20;37.00;;;;;;;;;;4985957;28;20411;-72
2022/01/17 07:34:16;;;;;;;61.60;40.73;;;;;;;;;;4983792;28;20384;-72
2022/01/17 07:36:43;;;;;;;61.00;40.80;;;;;;;;;;4985378;28;20521;-72
2022/01/17 07:39:09;;;;;;;59.23;39.07;;;;;;;;;;4985898;28;20050;-72
2022/01/17 07:41:35;;;;;;;57.97;41.40;;;;;;;;;;4984192;28;20019;-71
2022/01/17 07:44:03;;;;;;;61.43;39.57;;;;;;;;;;4985470;28;20089;-71
2022/01/17 07:46:54;;;;;;;51.00;36.77;;;;;;;;;;4985771;28;20114;-71
2022/01/17 07:49:19;;;;;;;55.10;35.40;;;;;;;;;;4986045;28;20030;-76
2022/01/17 07:51:47;;;;;;;47.87;33.30;;;;;;;;;;4985612;28;20155;-76
2022/01/17 07:54:18;;;;;;;50.00;32.53;;;;;;;;;;4983805;28;20019;-78
2022/01/17 07:56:45;;;;;;;46.43;31.23;;;;;;;;;;4985166;28;20023;-77
2022/01/17 07:59:12;;;;;;;48.73;33.67;;;;;;;;;;4985876;28;20046;-75
2022/01/17 08:01:38;;;;;;;51.70;35.30;;;;;;;;;;4984173;28;20045;-78
2022/01/17 08:04:05;;;;;;;51.57;35.70;;;;;;;;;;4984805;28;20057;-79
2022/01/17 08:06:36;;;;;;;50.70;35.77;;;;;;;;;;4985748;28;20035;-78
2022/01/17 08:09:04;;;;;;;50.57;35.73;;;;;;;;;;4984268;28;20038;-78
2022/01/17 08:11:30;;;;;;;65.90;38.13;;;;;;;;;;4983550;28;20034;-73
2022/01/17 08:13:57;;;;;;;52.83;37.20;;;;;;;;;;4985590;28;20026;-75
2022/01/17 08:16:23;;;;;;;56.60;39.67;;;;;;;;;;4984363;28;20398;-74
2022/01/17 08:18:52;;;;;;;58.17;39.70;;;;;;;;;;4984022;28;20399;-72
2022/01/17 08:21:18;;;;;;;65.97;42.67;;;;;;;;;;4985413;28;20025;-73
2022/01/17 08:23:44;;;;;;;61.97;38.93;;;;;;;;;;4984449;28;20023;-74
2022/01/17 08:26:10;;;;;;;55.27;34.53;;;;;;;;;;4983540;28;20030;-70
2022/01/17 08:28:36;;;;;;;45.97;32.00;;;;;;;;;;4989258;28;20033;-78
2022/01/17 08:31:02;;;;;;;59.23;32.50;;;;;;;;;;4995538;28;20031;-79
2022/01/17 08:33:28;;;;;;;43.10;30.53;;;;;;;;;;4995217;28;20030;-78
2022/01/17 08:35:54;;;;;;;44.33;29.70;;;;;;;;;;4995137;28;20058;-78
2022/01/17 08:38:20;;;;;;;44.80;31.53;;;;;;;;;;4995302;28;20399;-77
2022/01/17 08:40:46;;;;;;;46.77;33.97;;;;;;;;;;4995324;28;20028;-75
2022/01/17 08:43:12;;;;;;;49.13;35.20;;;;;;;;;;4995279;28;20109;-76
2022/01/17 08:45:38;;;;;;;54.30;38.20;;;;;;;;;;4994867;28;20073;-77
2022/01/17 08:48:05;;;;;;;52.27;36.93;;;;;;;;;;4995308;28;20022;-77
2022/01/17 08:50:31;;;;;;;55.07;36.87;;;;;;;;;;4995345;28;20113;-80
2022/01/17 08:52:58;;;;;;;53.10;37.57;;;;;;;;;;4995134;28;20109;-80
2022/01/17 08:55:25;;;;;;;48.03;34.47;;;;;;;;;;4994797;28;20041;-79
2022/01/17 08:57:51;;;;;;;50.63;36.27;;;;;;;;;;4994664;28;20065;-80
2022/01/17 09:00:18;;;;;;;48.00;34.70;;;;;;;;;;4995013;28;20121;-79
2022/01/17 09:02:44;;;;;;;47.17;34.33;;;;;;;;;;4995062;28;20499;-79
2022/01/17 09:05:11;;;;;;;57.30;34.93;;;;;;;;;;4994652;28;20483;-79
2022/01/17 09:07:37;;;;;;;57.70;35.33;;;;;;;;;;4994656;28;20060;-79
2022/01/17 09:10:04;;;;;;;43.60;32.50;;;;;;;;;;4994852;28;20105;-79
2022/01/17 09:12:30;;;;;;;47.23;31.80;;;;;;;;;;4994648;28;20069;-79
2022/01/17 09:14:56;;;;;;;42.13;25.83;;;;;;;;;;4994589;28;20035;-78
2022/01/17 09:17:23;;;;;;;32.13;23.83;;;;;;;;;;4994578;28;20034;-79
2022/01/17 09:19:50;;;;;;;32.43;22.83;;;;;;;;;;4994526;28;20038;-77
2022/01/17 09:22:16;;;;;;;38.30;22.63;;;;;;;;;;4994059;28;20104;-78
2022/01/17 09:24:42;;;;;;;30.67;22.27;;;;;;;;;;4994483;28;20030;-79
2022/01/17 09:27:10;;;;;;;30.67;21.07;;;;;;;;;;4994596;28;20022;-79
2022/01/17 09:29:37;;;;;;;27.43;20.17;;;;;;;;;;4994338;28;20037;-79
2022/01/17 09:32:03;;;;;;;33.53;19.27;;;;;;;;;;4994484;28;20014;-79
2022/01/17 09:34:29;;;;;;;34.90;19.40;;;;;;;;;;4994233;28;20480;-79
2022/01/17 09:36:55;;;;;;;40.10;18.80;;;;;;;;;;4994294;28;20559;-78
2022/01/17 09:39:21;;;;;;;28.77;19.07;;;;;;;;;;4994303;28;20085;-79
2022/01/17 09:41:47;;;;;;;35.10;23.83;;;;;;;;;;4994223;28;20121;-78
2022/01/17 09:44:14;;;;;;;41.43;30.53;;;;;;;;;;4993949;28;20081;-79
2022/01/17 09:46:46;;;;;;;50.87;33.97;;;;;;;;;;4994014;28;20034;-77
2022/01/17 09:54:28;;;;;;;52.57;33.03;;;;;;;;;;4993716;28;20034;-79
2022/01/17 09:56:55;;;;;;;49.93;34.03;;;;;;;;;;4994066;28;20030;-78
2022/01/17 09:59:21;;;;;;;46.63;33.97;;;;;;;;;;4994162;28;20033;-79
2022/01/17 10:01:48;;;;;;;48.50;34.17;;;;;;;;;;4994153;28;20022;-79
2022/01/17 10:04:16;;;;;;;42.47;31.47;;;;;;;;;;4993634;28;20023;-75
2022/01/17 10:06:43;;;;;;;43.70;32.23;;;;;;;;;;4993591;28;20105;-78
2022/01/17 10:09:17;;;;;;;43.90;31.63;;;;;;;;;;4993875;28;20025;-78
2022/01/17 10:12:01;;;;;;;46.83;31.50;;;;;;;;;;4993932;28;20101;-78
2022/01/17 10:14:28;;;;;;;42.57;30.27;;;;;;;;;;4993875;28;20607;-78
2022/01/17 10:16:55;;;;;;;44.17;31.63;;;;;;;;;;4993990;28;20041;-79
2022/01/17 10:19:27;;;;;;;47.87;31.70;;;;;;;;;;4993470;28;20080;-78
2022/01/17 10:21:54;;;;;;;;;;;;;;;;;;4994456;28;20026;-79
2022/01/17 10:24:28;;;;;;;44.23;27.17;;;;;;;;;;4993954;28;19906;-78
2022/01/17 10:27:12;;;;;;;36.73;25.90;;;;;;;;;;4993731;28;20030;-79
2022/01/17 10:34:56;;;;;;;36.20;24.90;;;;;;;;;;4995887;28;20194;-76
2022/01/17 10:37:24;;;;;;;29.80;22.00;;;;;;;;;;4997379;28;20399;-78
2022/01/17 10:39:54;;;;;;;30.67;20.77;;;;;;;;;;4997047;28;20026;-79
2022/01/17 10:42:24;;;;;;;26.07;18.90;;;;;;;;;;4997227;28;20026;-73
2022/01/17 10:44:50;;;;;;;23.97;17.63;;;;;;;;;;4997341;28;20510;-79
2022/01/17 10:47:20;;;;;;;24.27;17.30;;;;;;;;;;4997166;28;20100;-78
2022/01/17 10:50:12;;;;;;;24.73;16.17;;;;;;;;;;4997449;28;20027;-78
2022/01/17 10:52:46;;;;;;;23.53;15.47;;;;;;;;;;4996257;28;20031;-76
2022/01/17 10:55:24;;;;;;;23.37;15.23;;;;;;;;;;4997169;28;20137;-75
2022/01/17 10:57:51;;;;;;;28.60;15.97;;;;;;;;;;4997107;28;20053;-75
2022/01/17 11:00:25;;;;;;;31.90;19.23;;;;;;;;;;4997167;28;20041;-78
2022/01/17 11:02:55;;;;;;;31.27;20.27;;;;;;;;;;4997065;28;20109;-78
2022/01/17 11:05:22;;;;;;;29.03;19.23;;;;;;;;;;4997173;28;20385;-76
2022/01/17 11:08:01;;;;;;;31.70;22.10;;;;;;;;;;5002498;28;20113;-75
2022/01/17 11:10:29;;;;;;;33.33;21.30;;;;;;;;;;5022489;28;20029;-76
2022/01/17 11:12:57;;;;;;;27.33;20.37;;;;;;;;;;5002183;28;20475;-77
2022/01/17 11:15:24;;;;;;;26.37;18.40;;;;;;;;;;5002912;28;20034;-77
2022/01/17 11:17:53;;;;;;;26.33;15.27;;;;;;;;;;4996719;28;20352;-73
2022/01/17 11:20:22;;;;;;;24.47;15.07;;;;;;;;;;4996741;28;20019;-76
2022/01/17 11:22:50;;;;;;;22.43;14.13;;;;;;;;;;4996849;28;20026;-76
2022/01/17 11:25:21;;;;;;;21.23;14.93;;;;;;;;;;4996904;28;20018;-75
2022/01/17 11:27:47;;;;;;;18.77;15.00;;;;;;;;;;4998904;28;20026;-74
2022/01/17 11:30:15;;;;;;;23.37;14.90;;;;;;;;;;4999167;28;20030;-72
2022/01/17 11:32:41;;;;;;;21.50;14.40;;;;;;;;;;4996922;28;20097;-77
2022/01/17 11:35:08;;;;;;;21.53;14.70;;;;;;;;;;4996145;28;20046;-74
2022/01/17 11:37:37;;;;;;;17.97;13.43;;;;;;;;;;4996359;28;20120;-74
2022/01/17 11:40:04;;;;;;;23.13;13.80;;;;;;;;;;4996728;28;20110;-73
2022/01/17 11:42:31;;;;;;;27.20;14.10;;;;;;;;;;4996376;28;20152;-77
2022/01/17 11:44:57;;;;;;;24.70;12.97;;;;;;;;;;4996213;28;20387;-76
2022/01/17 11:47:42;;;;;;;19.57;13.33;;;;;;;;;;4996061;28;20487;-75
2022/01/17 11:50:26;;;;;;;18.37;13.20;;;;;;;;;;4996334;28;20479;-77
2022/01/17 11:52:52;;;;;;;22.37;13.00;;;;;;;;;;4996184;28;20019;-72
2022/01/17 11:55:37;;;;;;;18.93;12.80;;;;;;;;;;4995731;28;20038;-74
2022/01/17 11:58:22;;;;;;;17.30;11.57;;;;;;;;;;4996208;28;20034;-77
2022/01/17 12:00:51;;;;;;;22.00;13.17;;;;;;;;;;4995980;28;20030;-76
2022/01/17 12:03:20;;;;;;;19.97;13.13;;;;;;;;;;5011174;28;20486;-75
2022/01/17 12:05:47;;;;;;;25.83;14.00;;;;;;;;;;4995921;28;20018;-76
2022/01/17 12:08:23;;;;;;;19.83;14.13;;;;;;;;;;4995701;28;20026;-74
2022/01/17 12:10:54;;;;;;;17.93;13.10;;;;;;;;;;4995996;28;20026;-80
2022/01/17 12:13:22;;;;;;;19.00;14.57;;;;;;;;;;4996074;28;20092;-76
2022/01/17 12:16:28;;;;;;;20.93;14.93;;;;;;;;;;4996148;28;20549;-77
2022/01/17 12:19:00;;;;;;;23.67;15.00;;;;;;;;;;4996176;28;20057;-78
2022/01/17 12:21:39;;;;;;;17.47;13.60;;;;;;;;;;4995844;28;20488;-76
2022/01/17 12:24:17;;;;;;;20.30;13.23;;;;;;;;;;4995858;28;20027;-74
2022/01/17 12:26:44;;;;;;;23.20;15.73;;;;;;;;;;4996061;28;20412;-75
2022/01/17 12:29:10;;;;;;;24.47;14.83;;;;;;;;;;4995662;28;20431;-76
2022/01/17 12:31:37;;;;;;;21.37;16.20;;;;;;;;;;4995559;28;20026;-78
2022/01/17 12:34:15;;;;;;;27.17;16.03;;;;;;;;;;4996148;28;20057;-76
2022/01/17 12:36:42;;;;;;;23.77;16.00;;;;;;;;;;4995579;28;20043;-76
2022/01/17 12:39:11;;;;;;;22.57;14.47;;;;;;;;;;4995371;28;20101;-77
2022/01/17 12:41:37;;;;;;;17.30;12.57;;;;;;;;;;4995213;28;20052;-75
2022/01/17 12:44:14;;;;;;;15.93;11.67;;;;;;;;;;4995295;28;20502;-80
2022/01/17 12:46:42;;;;;;;84.63;15.03;;;;;;;;;;4995406;28;20469;-73
2022/01/17 12:49:08;;;;;;;52.03;12.93;;;;;;;;;;4995231;28;20027;-78
2022/01/17 12:51:34;;;;;;;26.03;11.40;;;;;;;;;;4995502;28;20076;-76
2022/01/17 12:54:02;;;;;;;16.00;11.50;;;;;;;;;;4995117;28;20057;-77
2022/01/17 12:56:29;;;;;;;15.80;11.20;;;;;;;;;;4994698;28;20038;-77
2022/01/17 12:58:59;;;;;;;14.83;11.67;;;;;;;;;;4994506;28;20022;-78
2022/01/17 13:01:26;;;;;;;22.90;11.70;;;;;;;;;;4995211;28;20073;-77
2022/01/17 13:03:52;;;;;;;15.63;12.10;;;;;;;;;;4994852;28;20033;-75
2022/01/17 13:06:19;;;;;;;16.07;11.40;;;;;;;;;;4995014;28;20030;-75
2022/01/17 13:08:46;;;;;;;16.40;11.60;;;;;;;;;;4994866;28;20439;-75
2022/01/17 13:11:16;;;;;;;18.23;12.23;;;;;;;;;;4994952;28;20034;-75
2022/01/17 13:14:01;;;;;;;16.90;12.53;;;;;;;;;;4994700;28;20490;-76
2022/01/17 13:16:30;;;;;;;20.40;12.77;;;;;;;;;;4994448;28;20046;-76
2022/01/17 13:18:57;;;;;;;20.87;12.90;;;;;;;;;;4994354;28;20050;-75
2022/01/17 13:21:23;;;;;;;18.50;13.57;;;;;;;;;;4994733;28;20105;-76
2022/01/17 13:24:12;;;;;;;18.80;13.43;;;;;;;;;;4994447;28;20101;-76
2022/01/17 13:26:38;;;;;;;18.70;13.53;;;;;;;;;;4994557;28;20502;-75
2022/01/17 13:29:07;;;;;;;17.57;12.83;;;;;;;;;;4994507;28;20027;-76
2022/01/17 13:31:33;;;;;;;17.57;12.77;;;;;;;;;;4994145;28;20113;-77
2022/01/17 13:34:13;;;;;;;18.40;12.20;;;;;;;;;;4994573;28;20026;-76
2022/01/17 13:36:39;;;;;;;16.30;12.00;;;;;;;;;;4994152;28;20046;-75
2022/01/17 13:39:09;;;;;;;17.77;12.83;;;;;;;;;;4994082;28;20027;-77
2022/01/17 13:41:36;;;;;;;21.17;12.17;;;;;;;;;;4994234;28;20033;-74
2022/01/17 13:44:02;;;;;;;18.80;12.13;;;;;;;;;;4994064;28;20360;-75
2022/01/17 13:46:28;;;;;;;17.10;12.10;;;;;;;;;;4994285;28;20030;-76
2022/01/17 13:48:54;;;;;;;18.03;12.63;;;;;;;;;;4994234;28;20053;-73
2022/01/17 13:51:25;;;;;;;19.77;14.40;;;;;;;;;;4994266;28;20030;-76
2022/01/17 13:53:54;;;;;;;18.97;14.80;;;;;;;;;;4993996;28;20022;-74
2022/01/17 13:56:20;;;;;;;22.20;16.30;;;;;;;;;;4993798;28;20081;-73
2022/01/17 13:58:50;;;;;;;21.83;16.77;;;;;;;;;;4993913;28;20026;-76
2022/01/17 14:01:17;;;;;;;24.97;17.97;;;;;;;;;;4993924;28;20498;-76
2022/01/17 14:03:44;;;;;;;21.57;17.80;;;;;;;;;;4993930;28;20061;-75
2022/01/17 14:06:11;;;;;;;27.53;20.37;;;;;;;;;;4993656;28;20511;-77
2022/01/17 14:08:42;;;;;;;28.03;21.87;;;;;;;;;;4993490;28;20394;-75
2022/01/17 14:11:09;;;;;;;30.17;22.40;;;;;;;;;;4993894;28;20017;-77
2022/01/17 14:13:37;;;;;;;26.87;20.90;;;;;;;;;;4993600;28;20054;-74
2022/01/17 14:16:12;;;;;;;26.07;21.10;;;;;;;;;;4993684;28;20046;-73
2022/01/17 14:18:45;;;;;;;31.33;22.20;;;;;;;;;;4993665;28;20025;-73
2022/01/17 14:21:21;;;;;;;26.48;22.23;;;;;;;;;;4993866;28;20029;-75
2022/01/17 14:23:48;;;;;;;31.40;22.37;;;;;;;;;;4993848;28;20023;-71
2022/01/17 14:26:27;;;;;;;27.00;23.23;;;;;;;;;;4993491;28;20109;-74
2022/01/17 14:28:53;;;;;;;29.27;22.30;;;;;;;;;;5008491;28;20480;-76
2022/01/17 14:31:19;;;;;;;28.37;23.07;;;;;;;;;;4992773;28;20093;-73
2022/01/17 14:33:51;;;;;;;32.67;22.87;;;;;;;;;;4993543;28;20066;-73
2022/01/17 14:36:18;;;;;;;31.23;22.33;;;;;;;;;;4993249;28;20451;-76
2022/01/17 14:38:48;;;;;;;52.43;22.50;;;;;;;;;;4993411;28;20476;-75
2022/01/17 14:41:19;;;;;;;30.67;22.80;;;;;;;;;;4993736;28;20033;-76
2022/01/17 14:43:47;;;;;;;31.00;22.03;;;;;;;;;;4993433;28;20360;-78
2022/01/17 14:46:13;;;;;;;28.27;22.00;;;;;;;;;;4993486;28;20030;-78
2022/01/17 14:48:41;;;;;;;33.57;21.27;;;;;;;;;;4993563;28;20023;-72
2022/01/17 14:51:11;;;;;;;33.37;22.43;;;;;;;;;;4993607;28;20057;-77
2022/01/17 14:53:37;;;;;;;35.43;22.30;;;;;;;;;;4993796;28;20026;-70
2022/01/17 15:01:40;;;;;;;31.97;22.50;;;;;;;;;;4993727;28;20088;-73
2022/01/17 15:04:06;;;;;;;29.30;22.90;;;;;;;;;;4993369;28;20069;-74